Kiyomaru — JK5234 — position and weather

sailwx.info

Track history (hours):
 
Tides and Currents Weather Stations Pressure Air Temp Water Temp Dewpoint Dewpoint Depression Visibility Wind Speed Wind Dir Waves Ship Positions

Kiyomaru

Last reported at 2018-Jan-21 10:14 UTC. Time now 2018-Jan-21 22:48 UTC.
Position N 34°27' E 134°04'.

Length 121 m; draft 4 m.

Type: Cargo ship. MMSI: 431400386.

Date/timePositionNaut miles runAvg speedWind from/ knotsBaromVisibWave heightAir tempDewpointWater temp
2018-Jan-21 10:14N 34°27' E 134°04'4 8.7
2018-Jan-21 09:46N 34°26' E 134°08'3 8.1
2018-Jan-21 09:23N 34°25' E 134°12'4 7.8
2018-Jan-21 08:51N 34°25' E 134°17'3 8.0
2018-Jan-21 08:29N 34°25' E 134°21'4 8.5
2018-Jan-21 08:00N 34°26' E 134°25'4 8.5
2018-Jan-21 07:30N 34°28' E 134°30'4 8.4
2018-Jan-21 07:00N 34°30' E 134°35'4 8.3
2018-Jan-21 06:30N 34°31' E 134°39'4 8.1
2018-Jan-21 06:00N 34°33' E 134°44'4 8.9
2018-Jan-21 05:30N 34°35' E 134°49'5 9.0
2018-Jan-21 05:00N 34°36' E 134°54'5 9.4
2018-Jan-21 04:30N 34°38' E 134°59'5 9.3
2018-Jan-21 04:00N 34°36' E 135°05'4 9.0
2018-Jan-21 03:30N 34°36' E 135°10'4 8.8
2018-Jan-21 03:00N 34°37' E 135°15'4 7.3
2018-Jan-21 02:30N 34°40' E 135°18'3 6.5
2018-Jan-21 02:00N 34°43' E 135°17'0 0.1
2018-Jan-21 01:30N 34°43' E 135°17'0 0.0
2018-Jan-21 01:00N 34°43' E 135°17'0 0.0
2018-Jan-21 00:30N 34°43' E 135°17'0 0.0
2018-Jan-21 00:00N 34°43' E 135°17'0 0.0
2018-Jan-20 23:30N 34°43' E 135°17'1 2.8
2018-Jan-20 23:00N 34°42' E 135°18'2 4.8
2018-Jan-20 22:30N 34°43' E 135°21'0 0.1
2018-Jan-20 22:00N 34°43' E 135°21'0 0.0
2018-Jan-20 21:29N 34°43' E 135°21'0 0.0
2018-Jan-20 21:00N 34°43' E 135°21'0 0.0
2018-Jan-20 20:30N 34°43' E 135°21'0 0.0
2018-Jan-20 20:00N 34°43' E 135°21'0 0.0
2018-Jan-20 19:30N 34°43' E 135°21'0 0.0
2018-Jan-20 19:00N 34°43' E 135°21'0 0.0
2018-Jan-20 18:30N 34°43' E 135°21'0 0.0
2018-Jan-20 18:00N 34°43' E 135°21'0 0.0
2018-Jan-20 17:30N 34°43' E 135°21'0 0.0
2018-Jan-20 17:00N 34°43' E 135°21'0 0.0
2018-Jan-20 16:30N 34°43' E 135°21'0 0.0
2018-Jan-20 16:00N 34°43' E 135°21'0 0.0
2018-Jan-20 15:30N 34°43' E 135°21'0 0.0
2018-Jan-20 15:00N 34°43' E 135°21'0 0.0
2018-Jan-20 14:30N 34°43' E 135°21'0 0.0
2018-Jan-20 14:00N 34°43' E 135°21'0 0.0
2018-Jan-20 13:30N 34°43' E 135°21'0 0.0
2018-Jan-20 13:00N 34°43' E 135°21'0 0.0
2018-Jan-20 12:29N 34°43' E 135°21'0 0.0
2018-Jan-20 11:59N 34°43' E 135°21'0 0.0
2018-Jan-20 11:30N 34°43' E 135°21'0 0.0
2018-Jan-20 11:00N 34°43' E 135°21'1 1.1
2018-Jan-20 10:30N 34°43' E 135°20'4 7.1
2018-Jan-20 10:00N 34°39' E 135°21'4 8.5
2018-Jan-20 09:30N 34°36' E 135°17'4 8.7
2018-Jan-20 09:00N 34°35' E 135°12'5 9.2
2018-Jan-20 08:30N 34°35' E 135°07'611.3
2018-Jan-20 08:00N 34°37' E 135°00'611.2
2018-Jan-20 07:30N 34°35' E 134°54'510.7
2018-Jan-20 07:00N 34°32' E 134°48'5 9.4
2018-Jan-20 06:30N 34°30' E 134°43'5 9.4
2018-Jan-20 06:00N 34°29' E 134°38'5 9.1
2018-Jan-20 05:30N 34°27' E 134°33'5 9.2
2018-Jan-20 05:00N 34°25' E 134°27'5 9.2
2018-Jan-20 04:30N 34°24' E 134°22'5 9.2
2018-Jan-20 04:00N 34°24' E 134°17'5 8.8
2018-Jan-20 03:30N 34°25' E 134°11'7 0.4
2018-Jan-19 10:01N 34°27' E 134°04'4 9.4
2018-Jan-19 09:32N 34°26' E 134°09'1 9.2
2018-Jan-19 09:25N 34°26' E 134°10'4 8.8
2018-Jan-19 09:00N 34°24' E 134°15'4 8.5
2018-Jan-19 08:29N 34°25' E 134°20'4 8.8
2018-Jan-19 08:00N 34°26' E 134°25'4 8.7
2018-Jan-19 07:30N 34°28' E 134°30'5 8.8
2018-Jan-19 06:59N 34°30' E 134°35'4 8.6
2018-Jan-19 06:30N 34°31' E 134°39'4 8.7
2018-Jan-19 06:00N 34°33' E 134°44'4 8.8
2018-Jan-19 05:30N 34°34' E 134°49'4 8.1
2018-Jan-19 05:00N 34°36' E 134°54'4 8.5
2018-Jan-19 04:30N 34°37' E 134°59'4 8.0
2018-Jan-19 04:00N 34°36' E 135°03'4 8.7
2018-Jan-19 03:30N 34°36' E 135°09'5 9.5
2018-Jan-19 03:00N 34°37' E 135°14'5 9.4
2018-Jan-19 02:30N 34°37' E 135°20'4 8.8
2018-Jan-19 02:00N 34°36' E 135°25'1 1.2
2018-Jan-19 01:30N 34°35' E 135°26'0 0.0
2018-Jan-19 01:00N 34°35' E 135°26'0 0.0
2018-Jan-19 00:30N 34°35' E 135°26'0 0.0
2018-Jan-19 00:00N 34°35' E 135°26'1 2.3
2018-Jan-18 23:30N 34°36' E 135°25'4 8.0
2018-Jan-18 23:00N 34°36' E 135°20'4 7.6
2018-Jan-18 22:30N 34°40' E 135°18'3 6.5
2018-Jan-18 22:00N 34°43' E 135°17'0 0.0
2018-Jan-18 21:30N 34°43' E 135°17'0 0.0
2018-Jan-18 21:00N 34°43' E 135°17'0 0.0
2018-Jan-18 20:30N 34°43' E 135°17'0 0.0
2018-Jan-18 20:00N 34°43' E 135°17'0 0.0
2018-Jan-18 19:30N 34°43' E 135°17'0 0.0
2018-Jan-18 19:00N 34°43' E 135°17'0 0.0
2018-Jan-18 18:30N 34°43' E 135°17'0 0.0
2018-Jan-18 18:00N 34°43' E 135°17'0 0.0
2018-Jan-18 17:30N 34°43' E 135°17'0 0.0
2018-Jan-18 17:00N 34°43' E 135°17'0 0.0
2018-Jan-18 16:30N 34°43' E 135°17'2 3.3
2018-Jan-18 16:00N 34°41' E 135°18'4 8.1
2018-Jan-18 15:30N 34°37' E 135°17'4 7.4
2018-Jan-18 15:00N 34°35' E 135°13'4 8.9
2018-Jan-18 14:30N 34°35' E 135°08'4 9.0
2018-Jan-18 14:00N 34°36' E 135°03'4 7.4
2018-Jan-18 13:30N 34°37' E 134°58'4 7.6
2018-Jan-18 12:59N 34°35' E 134°54'3 7.3
2018-Jan-18 12:30N 34°33' E 134°50'4 7.9
2018-Jan-18 12:00N 34°32' E 134°46'4 8.2
2018-Jan-18 11:30N 34°30' E 134°41'4 8.5
2018-Jan-18 11:00N 34°28' E 134°36'4 8.7
2018-Jan-18 10:30N 34°27' E 134°31'4 8.7
2018-Jan-18 10:00N 34°25' E 134°27'4 8.8
2018-Jan-18 09:30N 34°24' E 134°22'5 8.8
2018-Jan-18 08:55N 34°24' E 134°15'  
2018-Jan-12 15:00N 34°37' E 135°02'3 5.6
2018-Jan-12 14:30N 34°36' E 135°05'4 7.7
2018-Jan-12 14:00N 34°36' E 135°10'4 8.3
2018-Jan-12 13:30N 34°37' E 135°15'4 7.6
2018-Jan-12 13:00N 34°40' E 135°18'3 6.5
2018-Jan-12 12:30N 34°43' E 135°17'0 0.0
2018-Jan-12 12:00N 34°43' E 135°17'0 0.0
2018-Jan-12 11:30N 34°43' E 135°17'0 0.0
2018-Jan-12 11:00N 34°43' E 135°17'0 0.0
2018-Jan-12 10:30N 34°43' E 135°17'0 0.0
2018-Jan-12 10:00N 34°43' E 135°17'0 0.0
2018-Jan-12 09:30N 34°43' E 135°17'1 2.8
2018-Jan-12 09:00N 34°42' E 135°18'3 6.7
2018-Jan-12 08:30N 34°38' E 135°19'4 7.3
2018-Jan-12 08:00N 34°36' E 135°23'3 5.2
2018-Jan-12 07:30N 34°35' E 135°26'0 0.1
2018-Jan-12 07:00N 34°35' E 135°26'0 0.0
2018-Jan-12 06:30N 34°35' E 135°26'0 0.0
2018-Jan-12 06:00N 34°35' E 135°26'1 1.7
2018-Jan-12 05:30N 34°36' E 135°25'4 8.3
2018-Jan-12 05:00N 34°36' E 135°20'5 9.0
2018-Jan-12 04:30N 34°35' E 135°15'4 8.9
2018-Jan-12 04:00N 34°35' E 135°09'5 9.9
2018-Jan-12 03:30N 34°35' E 135°03'5 9.8
2018-Jan-12 03:00N 34°36' E 134°58'510.3
2018-Jan-12 02:30N 34°34' E 134°52'5 9.4
2018-Jan-12 02:00N 34°32' E 134°47'5 9.3
2018-Jan-12 01:30N 34°30' E 134°42'5 9.1
2018-Jan-12 01:00N 34°28' E 134°36'4 8.9
2018-Jan-12 00:30N 34°27' E 134°32'5 9.1
2018-Jan-12 00:00N 34°25' E 134°26'5 9.0
2018-Jan-11 23:29N 34°23' E 134°21'  
Track history (hours):
 
Tides and Currents Weather Stations Pressure Air Temp Water Temp Dewpoint Dewpoint Depression Visibility Wind Speed Wind Dir Waves Ship Positions

Kiyomaru

Last reported at 2018-Jan-21 10:14 UTC. Time now 2018-Jan-21 22:48 UTC.
Position N 34°27' E 134°04'.

Length 121 m; draft 4 m.

Type: Cargo ship. MMSI: 431400386.

Date/timePositionNaut miles runAvg speedWind from/ knotsBaromVisibWave heightAir tempDewpointWater temp
2018-Jan-21 10:14N 34°27' E 134°04'4 8.7
2018-Jan-21 09:46N 34°26' E 134°08'3 8.1
2018-Jan-21 09:23N 34°25' E 134°12'4 7.8
2018-Jan-21 08:51N 34°25' E 134°17'3 8.0
2018-Jan-21 08:29N 34°25' E 134°21'4 8.5
2018-Jan-21 08:00N 34°26' E 134°25'4 8.5
2018-Jan-21 07:30N 34°28' E 134°30'4 8.4
2018-Jan-21 07:00N 34°30' E 134°35'4 8.3
2018-Jan-21 06:30N 34°31' E 134°39'4 8.1
2018-Jan-21 06:00N 34°33' E 134°44'4 8.9
2018-Jan-21 05:30N 34°35' E 134°49'5 9.0
2018-Jan-21 05:00N 34°36' E 134°54'5 9.4
2018-Jan-21 04:30N 34°38' E 134°59'5 9.3
2018-Jan-21 04:00N 34°36' E 135°05'4 9.0
2018-Jan-21 03:30N 34°36' E 135°10'4 8.8
2018-Jan-21 03:00N 34°37' E 135°15'4 7.3
2018-Jan-21 02:30N 34°40' E 135°18'3 6.5
2018-Jan-21 02:00N 34°43' E 135°17'0 0.1
2018-Jan-21 01:30N 34°43' E 135°17'0 0.0
2018-Jan-21 01:00N 34°43' E 135°17'0 0.0
2018-Jan-21 00:30N 34°43' E 135°17'0 0.0
2018-Jan-21 00:00N 34°43' E 135°17'0 0.0
2018-Jan-20 23:30N 34°43' E 135°17'1 2.8
2018-Jan-20 23:00N 34°42' E 135°18'2 4.8
2018-Jan-20 22:30N 34°43' E 135°21'0 0.1
2018-Jan-20 22:00N 34°43' E 135°21'0 0.0
2018-Jan-20 21:29N 34°43' E 135°21'0 0.0
2018-Jan-20 21:00N 34°43' E 135°21'0 0.0
2018-Jan-20 20:30N 34°43' E 135°21'0 0.0
2018-Jan-20 20:00N 34°43' E 135°21'0 0.0
2018-Jan-20 19:30N 34°43' E 135°21'0 0.0
2018-Jan-20 19:00N 34°43' E 135°21'0 0.0
2018-Jan-20 18:30N 34°43' E 135°21'0 0.0
2018-Jan-20 18:00N 34°43' E 135°21'0 0.0
2018-Jan-20 17:30N 34°43' E 135°21'0 0.0
2018-Jan-20 17:00N 34°43' E 135°21'0 0.0
2018-Jan-20 16:30N 34°43' E 135°21'0 0.0
2018-Jan-20 16:00N 34°43' E 135°21'0 0.0
2018-Jan-20 15:30N 34°43' E 135°21'0 0.0
2018-Jan-20 15:00N 34°43' E 135°21'0 0.0
2018-Jan-20 14:30N 34°43' E 135°21'0 0.0
2018-Jan-20 14:00N 34°43' E 135°21'0 0.0
2018-Jan-20 13:30N 34°43' E 135°21'0 0.0
2018-Jan-20 13:00N 34°43' E 135°21'0 0.0
2018-Jan-20 12:29N 34°43' E 135°21'0 0.0
2018-Jan-20 11:59N 34°43' E 135°21'0 0.0
2018-Jan-20 11:30N 34°43' E 135°21'0 0.0
2018-Jan-20 11:00N 34°43' E 135°21'1 1.1
2018-Jan-20 10:30N 34°43' E 135°20'4 7.1
2018-Jan-20 10:00N 34°39' E 135°21'4 8.5
2018-Jan-20 09:30N 34°36' E 135°17'4 8.7
2018-Jan-20 09:00N 34°35' E 135°12'5 9.2
2018-Jan-20 08:30N 34°35' E 135°07'611.3
2018-Jan-20 08:00N 34°37' E 135°00'611.2
2018-Jan-20 07:30N 34°35' E 134°54'510.7
2018-Jan-20 07:00N 34°32' E 134°48'5 9.4
2018-Jan-20 06:30N 34°30' E 134°43'5 9.4
2018-Jan-20 06:00N 34°29' E 134°38'5 9.1
2018-Jan-20 05:30N 34°27' E 134°33'5 9.2
2018-Jan-20 05:00N 34°25' E 134°27'5 9.2
2018-Jan-20 04:30N 34°24' E 134°22'5 9.2
2018-Jan-20 04:00N 34°24' E 134°17'5 8.8
2018-Jan-20 03:30N 34°25' E 134°11'7 0.4
2018-Jan-19 10:01N 34°27' E 134°04'4 9.4
2018-Jan-19 09:32N 34°26' E 134°09'1 9.2
2018-Jan-19 09:25N 34°26' E 134°10'4 8.8
2018-Jan-19 09:00N 34°24' E 134°15'4 8.5
2018-Jan-19 08:29N 34°25' E 134°20'4 8.8
2018-Jan-19 08:00N 34°26' E 134°25'4 8.7
2018-Jan-19 07:30N 34°28' E 134°30'5 8.8
2018-Jan-19 06:59N 34°30' E 134°35'4 8.6
2018-Jan-19 06:30N 34°31' E 134°39'4 8.7
2018-Jan-19 06:00N 34°33' E 134°44'4 8.8
2018-Jan-19 05:30N 34°34' E 134°49'4 8.1
2018-Jan-19 05:00N 34°36' E 134°54'4 8.5
2018-Jan-19 04:30N 34°37' E 134°59'4 8.0
2018-Jan-19 04:00N 34°36' E 135°03'4 8.7
2018-Jan-19 03:30N 34°36' E 135°09'5 9.5
2018-Jan-19 03:00N 34°37' E 135°14'5 9.4
2018-Jan-19 02:30N 34°37' E 135°20'4 8.8
2018-Jan-19 02:00N 34°36' E 135°25'1 1.2
2018-Jan-19 01:30N 34°35' E 135°26'0 0.0
2018-Jan-19 01:00N 34°35' E 135°26'0 0.0
2018-Jan-19 00:30N 34°35' E 135°26'0 0.0
2018-Jan-19 00:00N 34°35' E 135°26'1 2.3
2018-Jan-18 23:30N 34°36' E 135°25'4 8.0
2018-Jan-18 23:00N 34°36' E 135°20'4 7.6
2018-Jan-18 22:30N 34°40' E 135°18'3 6.5
2018-Jan-18 22:00N 34°43' E 135°17'0 0.0
2018-Jan-18 21:30N 34°43' E 135°17'0 0.0
2018-Jan-18 21:00N 34°43' E 135°17'0 0.0
2018-Jan-18 20:30N 34°43' E 135°17'0 0.0
2018-Jan-18 20:00N 34°43' E 135°17'0 0.0
2018-Jan-18 19:30N 34°43' E 135°17'0 0.0
2018-Jan-18 19:00N 34°43' E 135°17'0 0.0
2018-Jan-18 18:30N 34°43' E 135°17'0 0.0
2018-Jan-18 18:00N 34°43' E 135°17'0 0.0
2018-Jan-18 17:30N 34°43' E 135°17'0 0.0
2018-Jan-18 17:00N 34°43' E 135°17'0 0.0
2018-Jan-18 16:30N 34°43' E 135°17'2 3.3
2018-Jan-18 16:00N 34°41' E 135°18'4 8.1
2018-Jan-18 15:30N 34°37' E 135°17'4 7.4
2018-Jan-18 15:00N 34°35' E 135°13'4 8.9
2018-Jan-18 14:30N 34°35' E 135°08'4 9.0
2018-Jan-18 14:00N 34°36' E 135°03'4 7.4
2018-Jan-18 13:30N 34°37' E 134°58'4 7.6
2018-Jan-18 12:59N 34°35' E 134°54'3 7.3
2018-Jan-18 12:30N 34°33' E 134°50'4 7.9
2018-Jan-18 12:00N 34°32' E 134°46'4 8.2
2018-Jan-18 11:30N 34°30' E 134°41'4 8.5
2018-Jan-18 11:00N 34°28' E 134°36'4 8.7
2018-Jan-18 10:30N 34°27' E 134°31'4 8.7
2018-Jan-18 10:00N 34°25' E 134°27'4 8.8
2018-Jan-18 09:30N 34°24' E 134°22'5 8.8
2018-Jan-18 08:55N 34°24' E 134°15'  
2018-Jan-12 15:00N 34°37' E 135°02'3 5.6
2018-Jan-12 14:30N 34°36' E 135°05'4 7.7
2018-Jan-12 14:00N 34°36' E 135°10'4 8.3
2018-Jan-12 13:30N 34°37' E 135°15'4 7.6
2018-Jan-12 13:00N 34°40' E 135°18'3 6.5
2018-Jan-12 12:30N 34°43' E 135°17'0 0.0
2018-Jan-12 12:00N 34°43' E 135°17'0 0.0
2018-Jan-12 11:30N 34°43' E 135°17'0 0.0
2018-Jan-12 11:00N 34°43' E 135°17'0 0.0
2018-Jan-12 10:30N 34°43' E 135°17'0 0.0
2018-Jan-12 10:00N 34°43' E 135°17'0 0.0
2018-Jan-12 09:30N 34°43' E 135°17'1 2.8
2018-Jan-12 09:00N 34°42' E 135°18'3 6.7
2018-Jan-12 08:30N 34°38' E 135°19'4 7.3
2018-Jan-12 08:00N 34°36' E 135°23'3 5.2
2018-Jan-12 07:30N 34°35' E 135°26'0 0.1
2018-Jan-12 07:00N 34°35' E 135°26'0 0.0
2018-Jan-12 06:30N 34°35' E 135°26'0 0.0
2018-Jan-12 06:00N 34°35' E 135°26'1 1.7
2018-Jan-12 05:30N 34°36' E 135°25'4 8.3
2018-Jan-12 05:00N 34°36' E 135°20'5 9.0
2018-Jan-12 04:30N 34°35' E 135°15'4 8.9
2018-Jan-12 04:00N 34°35' E 135°09'5 9.9
2018-Jan-12 03:30N 34°35' E 135°03'5 9.8
2018-Jan-12 03:00N 34°36' E 134°58'510.3
2018-Jan-12 02:30N 34°34' E 134°52'5 9.4
2018-Jan-12 02:00N 34°32' E 134°47'5 9.3
2018-Jan-12 01:30N 34°30' E 134°42'5 9.1
2018-Jan-12 01:00N 34°28' E 134°36'4 8.9
2018-Jan-12 00:30N 34°27' E 134°32'5 9.1
2018-Jan-12 00:00N 34°25' E 134°26'5 9.0
2018-Jan-11 23:29N 34°23' E 134°21'  

Dump ship's entire track history